createdAt,value
2023-07-10T00:00:18.048Z,21.71
2023-07-10T00:02:47.302Z,21.81
2023-07-10T00:05:14.862Z,21.77
2023-07-10T00:07:41.810Z,21.81
2023-07-10T00:10:13.254Z,21.91
2023-07-10T00:12:40.461Z,22.02
2023-07-10T00:15:12.886Z,21.91
2023-07-10T00:17:39.590Z,21.89
2023-07-10T00:20:13.447Z,21.63
2023-07-10T00:22:39.992Z,21.73
2023-07-10T00:25:06.714Z,21.65
2023-07-10T00:27:33.384Z,21.42
2023-07-10T00:29:59.904Z,21.37
2023-07-10T00:32:26.503Z,21.49
2023-07-10T00:34:53.240Z,21.61
2023-07-10T00:37:19.744Z,21.75
2023-07-10T00:39:46.432Z,21.76
2023-07-10T00:42:19.587Z,21.75
2023-07-10T00:44:54.774Z,21.62
2023-07-10T00:47:21.357Z,21.36
2023-07-10T00:49:50.836Z,21.44
2023-07-10T00:52:21.673Z,21.43
2023-07-10T00:54:49.749Z,21.47
2023-07-10T00:57:19.376Z,21.46
2023-07-10T00:59:46.142Z,21.33
2023-07-10T01:02:12.667Z,21.23
2023-07-10T01:04:41.002Z,21.38
2023-07-10T01:07:09.199Z,21.42
2023-07-10T01:09:36.381Z,21.34
2023-07-10T01:12:04.877Z,21.42
2023-07-10T01:14:35.836Z,21.43
2023-07-10T01:17:05.002Z,21.38
2023-07-10T01:19:31.893Z,21.24
2023-07-10T01:21:58.539Z,21.26
2023-07-10T01:24:25.382Z,21.33
2023-07-10T01:26:54.381Z,21.24
2023-07-10T01:29:23.925Z,21.15
2023-07-10T01:31:51.913Z,21.28
2023-07-10T01:34:19.376Z,21.34
2023-07-10T01:36:46.817Z,21.31
2023-07-10T01:39:14.436Z,21.40
2023-07-10T01:41:42.096Z,21.28
2023-07-10T01:44:28.828Z,21.25
2023-07-10T01:46:56.434Z,21.11
2023-07-10T01:49:25.710Z,20.97
2023-07-10T01:51:52.745Z,20.96
2023-07-10T01:54:19.278Z,21.04
2023-07-10T01:56:46.192Z,20.95
2023-07-10T01:59:12.818Z,20.78
2023-07-10T02:01:42.218Z,20.83
2023-07-10T02:04:09.298Z,20.83
2023-07-10T02:06:36.950Z,20.87
2023-07-10T02:09:03.714Z,20.91
2023-07-10T02:11:30.236Z,21.00
2023-07-10T02:13:57.132Z,20.70
2023-07-10T02:16:23.688Z,20.77
2023-07-10T02:18:50.229Z,20.79
2023-07-10T02:21:16.796Z,20.71
2023-07-10T02:23:48.772Z,20.66
2023-07-10T02:26:16.807Z,20.64
2023-07-10T02:28:44.046Z,20.62
2023-07-10T02:31:10.836Z,20.65
2023-07-10T02:33:37.484Z,20.51
2023-07-10T02:36:04.516Z,20.52
2023-07-10T02:38:31.470Z,20.56
2023-07-10T02:40:59.070Z,20.48
2023-07-10T02:43:26.966Z,20.35
2023-07-10T02:45:53.573Z,20.32
2023-07-10T02:48:20.114Z,20.36
2023-07-10T02:50:47.472Z,20.25
2023-07-10T02:53:15.547Z,20.37
2023-07-10T02:55:43.116Z,20.45
2023-07-10T02:58:09.815Z,20.30
2023-07-10T03:00:36.579Z,20.36
2023-07-10T03:03:03.153Z,20.42
2023-07-10T03:05:29.764Z,20.28
2023-07-10T03:07:56.251Z,20.31
2023-07-10T03:10:22.823Z,20.33
2023-07-10T03:12:49.390Z,20.31
2023-07-10T03:15:15.952Z,20.28
2023-07-10T03:17:43.272Z,20.35
2023-07-10T03:20:10.943Z,20.47
2023-07-10T03:22:37.473Z,20.52
2023-07-10T03:25:04.141Z,20.48
2023-07-10T03:27:30.961Z,20.46
2023-07-10T03:29:57.446Z,20.20
2023-07-10T03:32:23.962Z,20.12
2023-07-10T03:34:50.952Z,20.09
2023-07-10T03:37:17.563Z,20.24
2023-07-10T03:39:44.092Z,20.40
2023-07-10T03:42:10.908Z,20.46
2023-07-10T03:44:37.466Z,20.51
2023-07-10T03:47:04.158Z,20.61
2023-07-10T03:49:30.762Z,20.62
2023-07-10T03:51:57.269Z,20.29
2023-07-10T03:54:23.830Z,20.11
2023-07-10T03:56:50.282Z,20.33
2023-07-10T03:59:19.143Z,20.35
2023-07-10T04:01:45.622Z,20.36
2023-07-10T04:04:12.122Z,20.42
2023-07-10T04:06:38.759Z,20.45
2023-07-10T04:09:05.380Z,20.57
2023-07-10T04:11:31.884Z,20.46
2023-07-10T04:13:58.437Z,20.44
2023-07-10T04:16:29.896Z,20.57
2023-07-10T04:18:56.762Z,20.74
2023-07-10T04:21:28.145Z,20.84
2023-07-10T04:23:55.204Z,20.78
2023-07-10T04:26:29.101Z,20.66
2023-07-10T04:28:56.761Z,20.80
2023-07-10T04:31:24.380Z,21.03
2023-07-10T04:33:52.083Z,21.00
2023-07-10T04:36:18.853Z,21.15
2023-07-10T04:38:45.367Z,21.31
2023-07-10T04:41:13.240Z,21.33
2023-07-10T04:43:39.963Z,21.48
2023-07-10T04:46:07.924Z,21.44
2023-07-10T04:48:34.729Z,21.42
2023-07-10T04:51:04.827Z,21.49
2023-07-10T04:53:32.338Z,21.58
2023-07-10T04:56:00.724Z,21.80
2023-07-10T04:58:27.221Z,22.06
2023-07-10T05:00:54.468Z,22.02
2023-07-10T05:03:21.135Z,22.40
2023-07-10T05:05:57.940Z,22.42
2023-07-10T05:08:25.687Z,22.56
2023-07-10T05:10:52.831Z,22.49
2023-07-10T05:13:19.426Z,22.57
2023-07-10T05:15:46.909Z,22.70
2023-07-10T05:18:14.146Z,22.64
2023-07-10T05:20:41.090Z,22.75
2023-07-10T05:23:08.083Z,23.02
2023-07-10T05:25:34.596Z,23.05
2023-07-10T05:28:02.472Z,23.30
2023-07-10T05:30:29.682Z,23.70
2023-07-10T05:32:56.281Z,24.06
2023-07-10T05:35:23.293Z,24.51
2023-07-10T05:37:49.843Z,24.83
2023-07-10T05:40:16.463Z,24.99
2023-07-10T05:42:43.555Z,25.29
2023-07-10T05:45:10.261Z,25.53
2023-07-10T05:47:36.750Z,25.65
2023-07-10T05:50:03.387Z,25.73
2023-07-10T05:52:29.940Z,25.81
2023-07-10T05:54:56.436Z,26.16
2023-07-10T05:57:24.062Z,26.62
2023-07-10T05:59:50.716Z,26.84
2023-07-10T06:02:17.235Z,26.64
2023-07-10T06:04:44.015Z,26.12
2023-07-10T06:07:10.496Z,26.07
2023-07-10T06:09:37.010Z,26.57
2023-07-10T06:12:03.789Z,26.88
2023-07-10T06:14:30.339Z,27.06
2023-07-10T06:16:56.844Z,27.34
2023-07-10T06:19:23.370Z,27.03
2023-07-10T06:21:50.047Z,27.11
2023-07-10T06:24:16.571Z,26.95
2023-07-10T06:26:43.078Z,26.97
2023-07-10T06:29:09.552Z,26.86
2023-07-10T06:31:36.182Z,26.89
2023-07-10T06:34:02.688Z,27.02
2023-07-10T06:36:29.306Z,27.30
2023-07-10T06:38:55.817Z,27.60
2023-07-10T06:41:22.341Z,27.25
2023-07-10T06:43:48.866Z,28.08
2023-07-10T06:46:15.516Z,28.19
2023-07-10T06:48:43.981Z,28.67
2023-07-10T06:51:10.477Z,28.46
2023-07-10T06:53:37.190Z,28.84
2023-07-10T06:56:04.225Z,28.91
2023-07-10T06:58:31.947Z,28.24
2023-07-10T07:00:58.818Z,29.10
2023-07-10T07:03:25.716Z,29.82
2023-07-10T07:05:52.357Z,30.11
2023-07-10T07:08:19.149Z,30.59
2023-07-10T07:10:46.159Z,30.48
2023-07-10T07:13:12.948Z,30.12
2023-07-10T07:15:39.493Z,30.11
2023-07-10T07:18:06.126Z,30.75
2023-07-10T07:20:33.543Z,30.70
2023-07-10T07:23:00.348Z,30.88
2023-07-10T07:25:29.167Z,30.68
2023-07-10T07:27:55.720Z,31.57
2023-07-10T07:30:22.262Z,31.53
2023-07-10T07:32:49.022Z,31.41
2023-07-10T07:35:15.703Z,31.23
2023-07-10T07:37:42.311Z,31.47
2023-07-10T07:40:10.892Z,31.74
2023-07-10T07:42:37.491Z,31.83
2023-07-10T07:45:04.528Z,31.30
2023-07-10T07:47:31.350Z,31.78
2023-07-10T07:49:57.963Z,32.07
2023-07-10T07:52:24.669Z,32.32
2023-07-10T07:54:52.277Z,31.98
2023-07-10T07:57:18.817Z,31.92
2023-07-10T07:59:45.359Z,32.30
2023-07-10T08:02:11.890Z,33.10
2023-07-10T08:04:38.597Z,33.32
2023-07-10T08:07:05.350Z,33.41
2023-07-10T08:09:31.875Z,32.60
2023-07-10T08:11:58.458Z,33.16
2023-07-10T08:14:25.000Z,33.64
2023-07-10T08:16:51.519Z,34.17
2023-07-10T08:19:18.230Z,33.74
2023-07-10T08:21:44.986Z,34.11
2023-07-10T08:24:11.578Z,33.93
2023-07-10T08:26:38.084Z,34.36
2023-07-10T08:29:24.410Z,34.79
2023-07-10T08:31:52.686Z,34.03
2023-07-10T08:34:19.265Z,33.95
2023-07-10T08:36:46.980Z,34.65
2023-07-10T08:39:13.564Z,34.58
2023-07-10T08:41:40.841Z,34.64
2023-07-10T08:44:10.704Z,33.43
2023-07-10T08:46:37.493Z,33.56
2023-07-10T08:49:22.388Z,33.53
2023-07-10T08:52:04.033Z,34.38
2023-07-10T08:54:30.990Z,34.75
2023-07-10T08:57:04.460Z,35.89
2023-07-10T08:59:45.334Z,35.04
2023-07-10T09:02:17.901Z,35.67
2023-07-10T09:04:46.077Z,35.73
2023-07-10T09:07:13.552Z,35.51
2023-07-10T09:09:42.984Z,35.72
2023-07-10T09:12:12.616Z,35.60
2023-07-10T09:14:57.700Z,36.22
2023-07-10T09:17:31.914Z,36.06
2023-07-10T09:20:02.244Z,35.20
2023-07-10T09:22:29.076Z,35.66
2023-07-10T09:24:55.655Z,35.95
2023-07-10T09:27:22.310Z,35.46
2023-07-10T09:29:51.434Z,35.06
2023-07-10T09:32:19.278Z,34.46
2023-07-10T09:34:50.627Z,34.54
2023-07-10T09:37:18.914Z,35.90
2023-07-10T09:39:45.588Z,36.04
2023-07-10T09:42:20.225Z,36.84
2023-07-10T09:44:50.544Z,35.64
2023-07-10T09:47:17.989Z,35.58
2023-07-10T09:49:56.190Z,35.36
2023-07-10T09:52:27.668Z,34.61
2023-07-10T09:55:09.718Z,35.20
2023-07-10T09:57:48.512Z,34.80
2023-07-10T10:00:19.537Z,35.07
2023-07-10T10:02:53.781Z,35.38
2023-07-10T10:05:20.979Z,36.24
2023-07-10T10:07:49.222Z,36.41
2023-07-10T10:10:20.906Z,35.18
2023-07-10T10:12:59.858Z,35.55
2023-07-10T10:15:31.252Z,35.24
2023-07-10T10:18:03.075Z,35.43
2023-07-10T10:20:32.091Z,35.50
2023-07-10T10:22:59.199Z,35.21
2023-07-10T10:25:35.099Z,35.95
2023-07-10T10:28:22.597Z,35.47
2023-07-10T10:30:58.230Z,36.62
2023-07-10T10:33:25.766Z,36.82
2023-07-10T10:36:02.083Z,36.50
2023-07-10T10:38:28.915Z,35.76
2023-07-10T10:41:07.671Z,35.04
2023-07-10T10:43:40.079Z,35.39
2023-07-10T10:46:13.140Z,35.71
2023-07-10T10:48:47.693Z,36.13
2023-07-10T10:51:14.211Z,35.74
2023-07-10T10:53:40.785Z,35.47
2023-07-10T10:56:15.983Z,36.93
2023-07-10T10:59:06.981Z,35.51
2023-07-10T11:01:33.566Z,35.68
2023-07-10T11:04:10.360Z,36.38
2023-07-10T11:06:45.953Z,36.85
2023-07-10T11:09:17.687Z,35.65
2023-07-10T11:11:44.490Z,36.02
2023-07-10T11:14:12.219Z,36.00
2023-07-10T11:16:39.400Z,36.10
2023-07-10T11:19:06.416Z,35.97
2023-07-10T11:21:33.741Z,36.40
2023-07-10T11:24:14.051Z,35.96
2023-07-10T11:26:40.983Z,35.61
2023-07-10T11:29:31.487Z,35.76
2023-07-10T11:32:02.353Z,35.84
2023-07-10T11:34:31.898Z,36.33
2023-07-10T11:36:59.366Z,36.46
2023-07-10T11:39:33.780Z,36.63
2023-07-10T11:42:03.460Z,36.06
2023-07-10T11:44:30.250Z,35.53
2023-07-10T11:47:06.218Z,36.02
2023-07-10T11:49:36.581Z,35.80
2023-07-10T11:52:09.262Z,35.85
2023-07-10T11:54:37.462Z,35.96
2023-07-10T11:57:09.961Z,35.99
2023-07-10T11:59:43.357Z,36.13
2023-07-10T12:02:24.627Z,35.66
2023-07-10T12:04:51.228Z,36.27
2023-07-10T12:07:18.047Z,35.55
2023-07-10T12:09:49.486Z,35.80
2023-07-10T12:12:16.016Z,35.26
2023-07-10T12:14:42.611Z,35.57
2023-07-10T12:19:44.613Z,35.24
2023-07-10T12:22:25.165Z,36.23
2023-07-10T12:24:53.807Z,35.88
2023-07-10T12:28:17.917Z,36.21
2023-07-10T12:30:15.252Z,36.19
2023-07-10T12:32:41.942Z,36.85
2023-07-10T12:35:16.413Z,36.77
2023-07-10T12:37:49.021Z,36.91
2023-07-10T12:40:16.839Z,36.34
2023-07-10T12:42:44.404Z,35.72
2023-07-10T12:45:27.379Z,37.05
2023-07-10T12:48:07.102Z,36.10
2023-07-10T12:50:36.363Z,35.68
2023-07-10T12:53:06.833Z,35.63
2023-07-10T12:55:33.696Z,34.95
2023-07-10T12:58:02.396Z,35.60
2023-07-10T13:00:43.088Z,35.88
2023-07-10T13:03:40.878Z,36.33
2023-07-10T13:06:08.556Z,35.86
2023-07-10T13:08:39.644Z,35.19
2023-07-10T13:11:06.665Z,34.91
2023-07-10T13:13:36.036Z,34.99
2023-07-10T13:16:04.020Z,35.72
2023-07-10T13:18:32.843Z,34.81
2023-07-10T13:20:59.497Z,35.13
2023-07-10T13:23:26.083Z,34.62
2023-07-10T13:25:53.885Z,34.29
2023-07-10T13:28:22.457Z,34.46
2023-07-10T13:30:51.062Z,34.78
2023-07-10T13:33:19.069Z,35.02
2023-07-10T13:35:47.192Z,35.22
2023-07-10T13:38:13.820Z,35.02
2023-07-10T13:40:40.434Z,35.37
2023-07-10T13:43:18.065Z,35.10
2023-07-10T13:45:45.470Z,34.99
2023-07-10T13:48:16.042Z,34.93
2023-07-10T13:50:44.377Z,34.83
2023-07-10T13:53:12.252Z,34.71
2023-07-10T13:55:39.293Z,34.73
2023-07-10T13:58:15.635Z,34.58
2023-07-10T14:00:42.882Z,34.35
2023-07-10T14:03:13.384Z,34.34
2023-07-10T14:05:40.711Z,34.26
2023-07-10T14:08:17.600Z,34.25
2023-07-10T14:10:44.224Z,34.15
2023-07-10T14:13:11.612Z,34.32
2023-07-10T14:15:39.716Z,34.02
2023-07-10T14:18:16.884Z,34.00
2023-07-10T14:20:43.875Z,33.71
2023-07-10T14:23:14.988Z,33.59
2023-07-10T14:25:41.876Z,33.51
2023-07-10T14:28:16.217Z,33.24
2023-07-10T14:30:44.044Z,33.38
2023-07-10T14:33:11.054Z,33.21
2023-07-10T14:35:38.335Z,33.67
2023-07-10T14:38:30.858Z,31.58
2023-07-10T14:40:57.725Z,31.37
2023-07-10T14:43:24.368Z,31.20
2023-07-10T14:45:52.432Z,30.50
2023-07-10T14:48:21.444Z,28.35
2023-07-10T14:50:49.487Z,28.15
2023-07-10T14:53:17.558Z,26.63
2023-07-10T14:55:44.795Z,25.92
2023-07-10T14:58:15.076Z,25.30
2023-07-10T15:00:41.934Z,25.39
2023-07-10T15:03:10.239Z,24.75
2023-07-10T15:05:37.115Z,24.85
2023-07-10T15:08:04.040Z,24.45
2023-07-10T15:10:31.001Z,24.70
2023-07-10T15:13:01.383Z,24.94
2023-07-10T15:15:30.950Z,25.06
2023-07-10T15:17:57.519Z,25.31
2023-07-10T15:20:24.132Z,25.30
2023-07-10T15:22:50.880Z,24.98
2023-07-10T15:25:22.898Z,24.68
2023-07-10T15:27:53.259Z,24.63
2023-07-10T15:30:21.136Z,24.60
2023-07-10T15:32:48.467Z,25.34
2023-07-10T15:35:19.360Z,25.30
2023-07-10T15:37:46.320Z,24.92
2023-07-10T15:40:17.284Z,24.97
2023-07-10T15:42:46.581Z,25.28
2023-07-10T15:45:15.448Z,25.37
2023-07-10T15:47:43.179Z,25.44
2023-07-10T15:50:11.902Z,25.42
2023-07-10T15:52:40.436Z,25.37
2023-07-10T15:55:18.693Z,25.17
2023-07-10T15:57:46.172Z,24.94
2023-07-10T16:00:16.643Z,24.98
2023-07-10T16:02:43.400Z,24.91
2023-07-10T16:05:30.249Z,25.14
2023-07-10T16:07:57.535Z,24.92
2023-07-10T16:10:24.862Z,25.19
2023-07-10T16:12:51.926Z,25.68
2023-07-10T16:15:20.231Z,26.37
2023-07-10T16:17:47.897Z,26.51
2023-07-10T16:20:18.934Z,26.67
2023-07-10T16:22:48.654Z,27.05
2023-07-10T16:25:15.979Z,27.32
2023-07-10T16:27:43.343Z,26.87
2023-07-10T16:30:13.600Z,26.57
2023-07-10T16:32:40.103Z,26.75
2023-07-10T16:35:13.929Z,27.18
2023-07-10T16:37:40.517Z,27.35
2023-07-10T16:40:07.273Z,27.04
2023-07-10T16:42:35.700Z,27.23
2023-07-10T16:45:04.329Z,27.36
2023-07-10T16:47:31.575Z,27.03
2023-07-10T16:49:58.336Z,26.90
2023-07-10T16:52:25.250Z,26.90
2023-07-10T16:54:52.038Z,27.24
2023-07-10T16:57:18.915Z,27.17
2023-07-10T16:59:45.742Z,27.30
2023-07-10T17:02:23.767Z,27.07
2023-07-10T17:04:53.829Z,27.10
2023-07-10T17:07:20.425Z,27.21
2023-07-10T17:09:46.991Z,27.19
2023-07-10T17:12:13.607Z,26.96
2023-07-10T17:14:40.227Z,27.09
2023-07-10T17:17:21.160Z,26.83
2023-07-10T17:19:48.574Z,26.74
2023-07-10T17:22:21.001Z,26.21
2023-07-10T17:24:47.584Z,26.22
2023-07-10T17:27:14.110Z,26.43
2023-07-10T17:29:40.690Z,26.63
2023-07-10T17:32:14.177Z,26.95
2023-07-10T17:34:40.723Z,27.25
2023-07-10T17:37:11.224Z,26.97
2023-07-10T17:39:37.765Z,26.56
2023-07-10T17:42:04.683Z,26.30
2023-07-10T17:44:34.256Z,26.51
2023-07-10T17:47:00.910Z,26.68
2023-07-10T17:49:30.561Z,26.62
2023-07-10T17:51:58.619Z,26.44
2023-07-10T17:54:30.263Z,26.60
2023-07-10T17:56:57.542Z,26.61
2023-07-10T17:59:24.101Z,26.37
2023-07-10T18:01:50.925Z,25.95
2023-07-10T18:04:22.352Z,25.65
2023-07-10T18:06:49.509Z,25.84
2023-07-10T18:09:20.555Z,25.95
2023-07-10T18:11:47.174Z,25.98
2023-07-10T18:14:14.580Z,26.04
2023-07-10T18:16:41.717Z,26.02
2023-07-10T18:19:12.831Z,25.91
2023-07-10T18:21:39.619Z,25.94
2023-07-10T18:24:10.979Z,25.53
2023-07-10T18:26:37.463Z,25.57
2023-07-10T18:29:05.880Z,25.33
2023-07-10T18:31:32.502Z,25.29
2023-07-10T18:33:59.084Z,25.44
2023-07-10T18:36:26.401Z,25.26
2023-07-10T18:38:52.906Z,25.21
2023-07-10T18:41:23.957Z,25.16
2023-07-10T18:43:51.420Z,25.29
2023-07-10T18:46:19.585Z,25.44
2023-07-10T18:48:46.190Z,25.32
2023-07-10T18:51:15.672Z,25.26
2023-07-10T18:53:42.635Z,25.17
2023-07-10T18:56:10.050Z,25.10
2023-07-10T18:58:36.591Z,25.03
2023-07-10T19:01:04.227Z,25.05
2023-07-10T19:03:31.455Z,25.29
2023-07-10T19:05:58.062Z,25.06
2023-07-10T19:08:25.940Z,24.91
2023-07-10T19:10:53.220Z,24.66
2023-07-10T19:13:21.802Z,24.65
2023-07-10T19:15:49.968Z,24.68
2023-07-10T19:18:18.715Z,24.58
2023-07-10T19:20:45.302Z,24.50
2023-07-10T19:23:19.147Z,24.62
2023-07-10T19:25:46.608Z,24.59
2023-07-10T19:28:15.009Z,24.67
2023-07-10T19:30:44.257Z,24.52
2023-07-10T19:33:16.673Z,24.63
2023-07-10T19:35:43.172Z,24.71
2023-07-10T19:38:23.543Z,24.61
2023-07-10T19:40:51.654Z,24.75
2023-07-10T19:43:18.215Z,25.01
2023-07-10T19:45:45.867Z,25.05
2023-07-10T19:48:17.389Z,24.84
2023-07-10T19:50:44.961Z,24.95
2023-07-10T19:53:19.127Z,24.83
2023-07-10T19:55:46.380Z,24.62
2023-07-10T19:58:14.253Z,24.52
2023-07-10T20:00:41.192Z,24.43
2023-07-10T20:03:21.592Z,24.27
2023-07-10T20:05:48.808Z,23.98
2023-07-10T20:08:15.351Z,24.17
2023-07-10T20:10:41.949Z,24.11
2023-07-10T20:13:15.679Z,24.19
2023-07-10T20:15:43.759Z,24.10
2023-07-10T20:18:16.193Z,24.15
2023-07-10T20:20:42.768Z,24.13
2023-07-10T20:23:13.009Z,24.16
2023-07-10T20:25:43.168Z,24.09
2023-07-10T20:28:29.903Z,24.05
2023-07-10T20:30:56.456Z,24.14
2023-07-10T20:33:24.274Z,24.06
2023-07-10T20:35:50.784Z,24.28
2023-07-10T20:38:24.103Z,24.25
2023-07-10T20:40:51.010Z,23.97
2023-07-10T20:43:18.731Z,24.07
2023-07-10T20:45:46.497Z,23.94
2023-07-10T20:48:17.304Z,23.91
2023-07-10T20:50:44.159Z,23.79
2023-07-10T20:53:14.192Z,23.80
2023-07-10T20:55:41.248Z,23.79
2023-07-10T20:58:21.999Z,23.86
2023-07-10T21:00:48.840Z,23.88
2023-07-10T21:03:15.386Z,23.91
2023-07-10T21:05:42.340Z,23.84
2023-07-10T21:08:25.494Z,23.74
2023-07-10T21:10:54.692Z,23.69
2023-07-10T21:13:23.812Z,23.70
2023-07-10T21:15:50.338Z,23.61
2023-07-10T21:18:23.675Z,23.61
2023-07-10T21:20:50.381Z,23.55
2023-07-10T21:23:19.832Z,23.65
2023-07-10T21:25:46.347Z,23.62
2023-07-10T21:28:23.930Z,23.58
2023-07-10T21:30:50.614Z,23.73
2023-07-10T21:33:22.365Z,23.72
2023-07-10T21:35:50.119Z,23.70
2023-07-10T21:38:16.760Z,23.70
2023-07-10T21:40:44.459Z,23.80
2023-07-10T21:43:15.921Z,23.87
2023-07-10T21:45:42.449Z,24.01
2023-07-10T21:48:21.613Z,23.96
2023-07-10T21:50:49.221Z,23.95
2023-07-10T21:53:16.082Z,23.77
2023-07-10T21:55:42.571Z,23.66
2023-07-10T21:58:15.147Z,23.71
2023-07-10T22:00:41.668Z,23.65
2023-07-10T22:03:20.482Z,23.49
2023-07-10T22:05:47.078Z,23.67
2023-07-10T22:08:13.594Z,23.70
2023-07-10T22:10:40.188Z,23.91
2023-07-10T22:13:13.470Z,24.07
2023-07-10T22:15:40.303Z,23.89
2023-07-10T22:18:13.812Z,23.51
2023-07-10T22:20:41.178Z,23.52
2023-07-10T22:23:08.476Z,23.54
2023-07-10T22:25:35.008Z,23.47
2023-07-10T22:28:01.588Z,23.47
2023-07-10T22:30:28.204Z,23.68
2023-07-10T22:32:54.756Z,23.35
2023-07-10T22:35:21.994Z,23.10
2023-07-10T22:37:49.038Z,23.19
2023-07-10T22:40:15.608Z,23.14
2023-07-10T22:42:42.762Z,23.16
2023-07-10T22:45:14.814Z,23.11
2023-07-10T22:47:41.401Z,23.10
2023-07-10T22:50:11.766Z,22.86
2023-07-10T22:52:39.380Z,22.88
2023-07-10T22:55:06.589Z,22.90
2023-07-10T22:57:33.172Z,22.72
2023-07-10T22:59:59.649Z,22.66
2023-07-10T23:02:26.249Z,22.83
2023-07-10T23:04:53.046Z,22.73
2023-07-10T23:07:19.814Z,22.74
2023-07-10T23:09:46.320Z,22.49
2023-07-10T23:12:13.410Z,22.64
2023-07-10T23:14:39.888Z,22.38
2023-07-10T23:17:06.822Z,22.57
2023-07-10T23:19:33.307Z,22.42
2023-07-10T23:21:59.796Z,22.54
2023-07-10T23:24:28.420Z,22.63
2023-07-10T23:26:57.738Z,22.49
2023-07-10T23:29:24.240Z,22.45
2023-07-10T23:31:50.755Z,22.45
2023-07-10T23:34:17.466Z,22.22
2023-07-10T23:36:46.826Z,22.32
2023-07-10T23:39:13.520Z,22.33
2023-07-10T23:41:40.138Z,22.42
2023-07-10T23:44:07.121Z,22.47
2023-07-10T23:46:34.027Z,22.31
2023-07-10T23:49:00.544Z,22.24
2023-07-10T23:51:27.061Z,22.32
2023-07-10T23:53:53.572Z,22.30
2023-07-10T23:56:20.164Z,22.21
2023-07-10T23:58:46.728Z,22.06
